Hdms Esbern Snare — OUFB — position and weather

sailwx.info

Track history (hours):
 
Tides and Currents Weather Stations Pressure Air Temp Water Temp Dewpoint Dewpoint Depression Visibility Wind Speed Wind Dir Waves Ship Positions

Hdms Esbern Snare

Last reported at 2017-Jan-21 18:32 UTC. Time now 2017-Jan-21 19:30 UTC.
Position N 50°23' W 004°11'.

Length 137 m.

Type: Military. MMSI: 36699999.

Date/timePositionNaut miles runAvg speedWind from/ knotsBaromVisibWave heightAir tempDewpointWater temp
2017-Jan-21 18:32N 50°23' W 004°11'0 0.0
2017-Jan-21 17:32N 50°23' W 004°11'0 0.0
2017-Jan-21 16:32N 50°23' W 004°11'0 0.0
2017-Jan-21 15:32N 50°23' W 004°11'0 0.0
2017-Jan-21 14:32N 50°23' W 004°11'0 0.0
2017-Jan-21 13:32N 50°23' W 004°11'0 0.0
2017-Jan-21 12:32N 50°23' W 004°11'0 0.0
2017-Jan-21 11:32N 50°23' W 004°11'0 0.0
2017-Jan-21 10:32N 50°23' W 004°11'0 0.0
2017-Jan-21 09:32N 50°23' W 004°11'0 0.0
2017-Jan-21 08:29N 50°23' W 004°11'0 0.0
2017-Jan-21 07:32N 50°23' W 004°11'0 0.0
2017-Jan-21 06:32N 50°23' W 004°11'0 0.0
2017-Jan-21 05:32N 50°23' W 004°11'0 0.0
2017-Jan-21 04:31N 50°23' W 004°11'0 0.0
2017-Jan-21 03:31N 50°23' W 004°11'0 0.0
2017-Jan-21 02:31N 50°23' W 004°11'0 0.0
2017-Jan-21 01:31N 50°23' W 004°11'0 0.0
2017-Jan-21 00:28N 50°23' W 004°11'0 0.0
2017-Jan-20 23:31N 50°23' W 004°11'0 0.0
2017-Jan-20 22:31N 50°23' W 004°11'0 0.0
2017-Jan-20 21:31N 50°23' W 004°11'0 0.0
2017-Jan-20 20:31N 50°23' W 004°11'0 0.0
2017-Jan-20 19:31N 50°23' W 004°11'0 0.0
2017-Jan-20 18:31N 50°23' W 004°11'0 0.0
2017-Jan-20 17:31N 50°23' W 004°11'0 0.0
2017-Jan-20 16:31N 50°23' W 004°11'0 0.0
2017-Jan-20 15:31N 50°23' W 004°11'3 2.7
2017-Jan-20 14:34N 50°21' W 004°08'6 5.8
2017-Jan-20 13:33N 50°16' W 004°10'1 0.6
2017-Jan-20 12:33N 50°15' W 004°09'2 2.3
2017-Jan-20 11:33N 50°13' W 004°12'3 2.9
2017-Jan-20 10:33N 50°14' W 004°16'6 4.6
2017-Jan-20 09:10N 50°19' W 004°10'2 3.5
2017-Jan-20 08:32N 50°21' W 004°09'0 0.0
2017-Jan-20 07:32N 50°21' W 004°09'0 0.0
2017-Jan-20 06:32N 50°21' W 004°09'0 0.0
2017-Jan-20 05:32N 50°21' W 004°09'0 0.0
2017-Jan-20 04:32N 50°21' W 004°09'0 0.0
2017-Jan-20 03:32N 50°21' W 004°09'0 0.0
2017-Jan-20 02:32N 50°21' W 004°09'0 0.0
2017-Jan-20 01:32N 50°21' W 004°09'0 0.0
2017-Jan-20 00:32N 50°21' W 004°09'0 0.0
2017-Jan-19 23:32N 50°21' W 004°09'0 0.0
2017-Jan-19 22:32N 50°21' W 004°09'0 0.0
2017-Jan-19 21:32N 50°21' W 004°09'0 0.0
2017-Jan-19 20:32N 50°21' W 004°09'0 0.0
2017-Jan-19 19:32N 50°21' W 004°09'0 0.0
2017-Jan-19 18:32N 50°21' W 004°09'0 0.0
2017-Jan-19 17:32N 50°21' W 004°09'1 0.6
2017-Jan-19 16:30N 50°20' W 004°09'5 5.4
2017-Jan-19 15:34N 50°15' W 004°12'1 1.4
2017-Jan-19 14:34N 50°14' W 004°12'11 9.4
2017-Jan-19 13:25N 50°03' W 004°13'1312.3
2017-Jan-19 12:23N 49°53' W 004°02'7 8.4
2017-Jan-19 11:33N 49°53' W 004°12'8 6.2
2017-Jan-19 10:15N 50°01' W 004°10'6 8.3
2017-Jan-19 09:32N 50°07' W 004°10'1212.0
2017-Jan-19 08:32N 50°19' W 004°10'2 2.4
2017-Jan-19 07:33N 50°21' W 004°09'0 0.0
2017-Jan-19 06:33N 50°21' W 004°09'0 0.1
2017-Jan-19 05:33N 50°21' W 004°08'0 0.1
2017-Jan-19 04:30N 50°21' W 004°09'0 0.0
2017-Jan-19 03:30N 50°21' W 004°09'0 0.0
2017-Jan-19 02:33N 50°21' W 004°09'0 0.0
2017-Jan-19 01:33N 50°21' W 004°09'0 0.0
2017-Jan-19 00:33N 50°21' W 004°09'0 0.0
2017-Jan-18 23:30N 50°21' W 004°09'0 0.0
2017-Jan-18 22:33N 50°21' W 004°09'0 0.0
2017-Jan-18 21:33N 50°21' W 004°09'0 0.0
2017-Jan-18 20:33N 50°21' W 004°09'0 0.0
2017-Jan-18 19:30N 50°21' W 004°09'0 0.1
2017-Jan-18 18:33N 50°21' W 004°08'6 5.6
2017-Jan-18 17:33N 50°16' W 004°12'2 2.0
2017-Jan-18 16:29N 50°15' W 004°16'0 0.3
2017-Jan-18 15:34N 50°15' W 004°15'6 5.3
2017-Jan-18 14:27N 50°14' W 004°06'2 2.6
2017-Jan-18 13:33N 50°16' W 004°09'1 1.0
2017-Jan-18 12:33N 50°16' W 004°07'2 1.6
2017-Jan-18 11:21N 50°18' W 004°09'2 2.9
2017-Jan-18 10:34N 50°16' W 004°12'5 5.3
2017-Jan-18 09:33N 50°16' W 004°04'5 5.3
2017-Jan-18 08:33N 50°21' W 004°09'0 0.1
2017-Jan-18 07:33N 50°21' W 004°09'0 0.0
2017-Jan-18 06:33N 50°21' W 004°09'0 0.0
2017-Jan-18 05:33N 50°21' W 004°09'0 0.0
2017-Jan-18 04:33N 50°21' W 004°09'0 0.0
2017-Jan-18 03:33N 50°21' W 004°09'0 0.0
2017-Jan-18 02:33N 50°21' W 004°09'0 0.0
2017-Jan-18 01:33N 50°21' W 004°09'0 0.0
2017-Jan-18 00:33N 50°21' W 004°09'0 0.0
2017-Jan-17 23:34N 50°21' W 004°09'5 5.0
2017-Jan-17 22:31N 50°16' W 004°09'1110.9
2017-Jan-17 21:28N 50°05' W 004°03'4 4.1
2017-Jan-17 20:33N 50°06' W 003°57'7 7.0
2017-Jan-17 19:34N 50°12' W 004°04'6 6.2
2017-Jan-17 18:33N 50°17' W 004°10'2 0.9
2017-Jan-17 16:33N 50°15' W 004°09'6 6.1
2017-Jan-17 15:34N 50°09' W 004°12'6 6.2
2017-Jan-17 14:34N 50°05' W 004°05'1513.9
2017-Jan-17 13:28N 50°20' W 004°09'5 5.4
2017-Jan-17 12:33N 50°16' W 004°11'0 0.4
2017-Jan-17 11:33N 50°16' W 004°11'2 1.6
2017-Jan-17 10:33N 50°16' W 004°08'1 0.8
2017-Jan-17 09:18N 50°16' W 004°07'3 4.1
2017-Jan-17 08:34N 50°15' W 004°11'6 6.0
2017-Jan-17 07:31N 50°21' W 004°09'0 0.0
2017-Jan-17 06:31N 50°21' W 004°09'0 0.0
2017-Jan-17 05:31N 50°21' W 004°08'0 0.0
2017-Jan-17 04:31N 50°21' W 004°08'0 0.0
2017-Jan-17 03:31N 50°21' W 004°08'0 0.0
2017-Jan-17 02:31N 50°21' W 004°08'0 0.0
2017-Jan-17 01:31N 50°21' W 004°08'0 0.0
2017-Jan-17 00:31N 50°21' W 004°09'0 0.0
2017-Jan-16 23:28N 50°21' W 004°08'0 0.0
2017-Jan-16 22:30N 50°21' W 004°08'0 0.0
2017-Jan-16 21:34N 50°21' W 004°08'3 3.2
2017-Jan-16 20:33N 50°18' W 004°07'4 4.0
2017-Jan-16 19:29N 50°15' W 004°12'0 0.2
2017-Jan-16 18:32N 50°15' W 004°12'0 0.3
2017-Jan-16 17:32N 50°15' W 004°13'2 2.3
2017-Jan-16 16:33N 50°15' W 004°16'5 5.1
2017-Jan-16 15:32N 50°20' W 004°18'6 6.6
2017-Jan-16 14:33N 50°21' W 004°08'3 2.5
2017-Jan-16 13:33N 50°23' W 004°11'0 0.0
2017-Jan-16 12:30N 50°23' W 004°11'0 0.0
2017-Jan-16 11:33N 50°23' W 004°11'0 0.0
2017-Jan-16 10:33N 50°23' W 004°11'0 0.0
2017-Jan-16 09:30N 50°23' W 004°11'0 0.0
2017-Jan-16 08:33N 50°23' W 004°11'0 0.0
2017-Jan-16 07:33N 50°23' W 004°11'0 0.0
2017-Jan-16 06:33N 50°23' W 004°11'0 0.0
2017-Jan-16 05:32N 50°23' W 004°11'0 0.0
2017-Jan-16 04:32N 50°23' W 004°11'0 0.0
2017-Jan-16 03:29N 50°23' W 004°11'0 0.0
2017-Jan-16 02:29N 50°23' W 004°11'0 0.0
2017-Jan-16 01:32N 50°23' W 004°11'0 0.0
2017-Jan-16 00:29N 50°23' W 004°11'0 0.0
2017-Jan-15 23:29N 50°23' W 004°11'0 0.0
2017-Jan-15 22:32N 50°23' W 004°11'0 0.0
2017-Jan-15 21:32N 50°23' W 004°11'0 0.0
2017-Jan-15 20:32N 50°23' W 004°11'0 0.0
2017-Jan-15 19:29N 50°23' W 004°11'0 0.0
2017-Jan-15 18:32N 50°23' W 004°11'0 0.0
2017-Jan-15 17:32N 50°23' W 004°11'0 0.0
2017-Jan-15 16:29N 50°23' W 004°11'0 0.0
2017-Jan-15 15:32N 50°23' W 004°11'0 0.0
2017-Jan-15 14:32N 50°23' W 004°11'0 0.0
2017-Jan-15 13:32N 50°23' W 004°11'0 0.0
2017-Jan-15 12:23N 50°23' W 004°11'0 0.0
2017-Jan-15 11:32N 50°23' W 004°11'0 0.0
2017-Jan-15 10:32N 50°23' W 004°11'0 0.0
2017-Jan-15 09:32N 50°23' W 004°11'0 0.0
2017-Jan-15 08:29N 50°23' W 004°11'0 0.0
2017-Jan-15 07:32N 50°23' W 004°11'0 0.0
2017-Jan-15 06:29N 50°23' W 004°11'0 0.0
2017-Jan-15 05:32N 50°23' W 004°11'0 0.0
2017-Jan-15 04:32N 50°23' W 004°11'0 0.0
2017-Jan-15 03:29N 50°23' W 004°11'0 0.0
2017-Jan-15 02:29N 50°23' W 004°11'0 0.0
2017-Jan-15 01:32N 50°23' W 004°11'0 0.0
2017-Jan-15 00:29N 50°23' W 004°11'0 0.0
2017-Jan-14 23:32N 50°23' W 004°11'0 0.0
2017-Jan-14 22:32N 50°23' W 004°11'0 0.0
2017-Jan-14 21:29N 50°23' W 004°11'0 0.0
2017-Jan-14 20:32N 50°23' W 004°11'0 0.0
2017-Jan-14 19:32N 50°23' W 004°11'0 0.0
2017-Jan-14 18:32N 50°23' W 004°11'0 0.0
2017-Jan-14 17:32N 50°23' W 004°11'0 0.0
2017-Jan-14 16:31N 50°23' W 004°11'0 0.0
2017-Jan-14 15:31N 50°23' W 004°11'0 0.0
2017-Jan-14 14:31N 50°23' W 004°11'0 0.0
2017-Jan-14 13:31N 50°23' W 004°11'0 0.0
2017-Jan-14 12:31N 50°23' W 004°11'0 0.0
2017-Jan-14 11:31N 50°23' W 004°11'0 0.0
2017-Jan-14 10:31N 50°23' W 004°11'0 0.0
2017-Jan-14 09:31N 50°23' W 004°11'0 0.0
2017-Jan-14 08:31N 50°23' W 004°11'0 0.0
2017-Jan-14 07:34N 50°23' W 004°11'0 0.0
2017-Jan-14 06:33N 50°23' W 004°11'0 0.0
2017-Jan-14 05:33N 50°23' W 004°11'0 0.0
2017-Jan-14 04:30N 50°23' W 004°11'0 0.0
2017-Jan-14 03:30N 50°23' W 004°11'0 0.0
2017-Jan-13 23:30N 50°23' W 004°11'0 0.0
2017-Jan-13 22:33N 50°23' W 004°11'0 0.0
2017-Jan-13 21:33N 50°23' W 004°11'0 0.0
2017-Jan-13 20:30N 50°23' W 004°11'0 0.0
2017-Jan-13 19:33N 50°23' W 004°11'0 0.0
2017-Jan-13 18:33N 50°23' W 004°11'0 0.0
2017-Jan-13 17:33N 50°23' W 004°11'0 0.0
2017-Jan-13 16:33N 50°23' W 004°11'0 0.0
2017-Jan-13 15:33N 50°23' W 004°11'0 0.0
2017-Jan-13 14:33N 50°23' W 004°11'0 0.0
2017-Jan-13 13:30N 50°23' W 004°11'0 0.0
2017-Jan-13 12:33N 50°23' W 004°11'0 0.0
2017-Jan-13 11:33N 50°23' W 004°11'0 0.0
2017-Jan-13 10:33N 50°23' W 004°11'0 0.0
2017-Jan-13 09:30N 50°23' W 004°11'0 0.0
2017-Jan-13 08:30N 50°23' W 004°11'0 0.0
2017-Jan-13 07:33N 50°23' W 004°11'0 0.0
2017-Jan-13 06:30N 50°23' W 004°11'0 0.0
2017-Jan-13 05:33N 50°23' W 004°11'0 0.0
2017-Jan-13 04:33N 50°23' W 004°11'0 0.0
2017-Jan-13 03:33N 50°23' W 004°11'0 0.0
2017-Jan-13 02:33N 50°23' W 004°11'0 0.0
2017-Jan-13 01:30N 50°23' W 004°11'0 0.0
2017-Jan-13 00:30N 50°23' W 004°11'0 0.0
2017-Jan-12 23:32N 50°23' W 004°11'0 0.0
2017-Jan-12 22:29N 50°23' W 004°11'0 0.0
2017-Jan-12 21:29N 50°23' W 004°11'0 0.0
2017-Jan-12 20:32N 50°23' W 004°11'0 0.0
2017-Jan-12 19:29N 50°23' W 004°11'0 0.0
2017-Jan-12 18:32N 50°23' W 004°11'0 0.0
2017-Jan-12 17:32N 50°23' W 004°11'0 0.0
2017-Jan-12 16:32N 50°23' W 004°11'0 0.0
2017-Jan-12 15:32N 50°23' W 004°11'0 0.0
2017-Jan-12 14:29N 50°23' W 004°11'0 0.0
2017-Jan-12 13:32N 50°23' W 004°11'0 0.0
2017-Jan-12 12:32N 50°23' W 004°11'0 0.0
2017-Jan-12 11:29N 50°23' W 004°11'0 0.0
2017-Jan-12 10:29N 50°23' W 004°11'0 0.0
2017-Jan-12 09:32N 50°23' W 004°11'0 0.0
2017-Jan-12 08:32N 50°23' W 004°11'0 0.0
2017-Jan-12 07:32N 50°23' W 004°11'0 0.0
2017-Jan-12 06:29N 50°23' W 004°11'0 0.0
2017-Jan-12 05:29N 50°23' W 004°11'0 0.0
2017-Jan-12 04:32N 50°23' W 004°11'0 0.0
2017-Jan-12 03:32N 50°23' W 004°11'0 0.0
2017-Jan-12 02:29N 50°23' W 004°11'0 0.0
2017-Jan-12 01:32N 50°23' W 004°11'0 0.0
2017-Jan-12 00:32N 50°23' W 004°11'0 0.0
2017-Jan-11 23:32N 50°23' W 004°11'0 0.0
2017-Jan-11 22:29N 50°23' W 004°11'0 0.0
2017-Jan-11 21:32N 50°23' W 004°11'0 0.0
2017-Jan-11 20:32N 50°23' W 004°11'0 0.0
2017-Jan-11 19:32N 50°23' W 004°11'  
Track history (hours):
 
Tides and Currents Weather Stations Pressure Air Temp Water Temp Dewpoint Dewpoint Depression Visibility Wind Speed Wind Dir Waves Ship Positions

Hdms Esbern Snare

Last reported at 2017-Jan-21 18:32 UTC. Time now 2017-Jan-21 19:30 UTC.
Position N 50°23' W 004°11'.

Length 137 m.

Type: Military. MMSI: 36699999.

Date/timePositionNaut miles runAvg speedWind from/ knotsBaromVisibWave heightAir tempDewpointWater temp
2017-Jan-21 18:32N 50°23' W 004°11'0 0.0
2017-Jan-21 17:32N 50°23' W 004°11'0 0.0
2017-Jan-21 16:32N 50°23' W 004°11'0 0.0
2017-Jan-21 15:32N 50°23' W 004°11'0 0.0
2017-Jan-21 14:32N 50°23' W 004°11'0 0.0
2017-Jan-21 13:32N 50°23' W 004°11'0 0.0
2017-Jan-21 12:32N 50°23' W 004°11'0 0.0
2017-Jan-21 11:32N 50°23' W 004°11'0 0.0
2017-Jan-21 10:32N 50°23' W 004°11'0 0.0
2017-Jan-21 09:32N 50°23' W 004°11'0 0.0
2017-Jan-21 08:29N 50°23' W 004°11'0 0.0
2017-Jan-21 07:32N 50°23' W 004°11'0 0.0
2017-Jan-21 06:32N 50°23' W 004°11'0 0.0
2017-Jan-21 05:32N 50°23' W 004°11'0 0.0
2017-Jan-21 04:31N 50°23' W 004°11'0 0.0
2017-Jan-21 03:31N 50°23' W 004°11'0 0.0
2017-Jan-21 02:31N 50°23' W 004°11'0 0.0
2017-Jan-21 01:31N 50°23' W 004°11'0 0.0
2017-Jan-21 00:28N 50°23' W 004°11'0 0.0
2017-Jan-20 23:31N 50°23' W 004°11'0 0.0
2017-Jan-20 22:31N 50°23' W 004°11'0 0.0
2017-Jan-20 21:31N 50°23' W 004°11'0 0.0
2017-Jan-20 20:31N 50°23' W 004°11'0 0.0
2017-Jan-20 19:31N 50°23' W 004°11'0 0.0
2017-Jan-20 18:31N 50°23' W 004°11'0 0.0
2017-Jan-20 17:31N 50°23' W 004°11'0 0.0
2017-Jan-20 16:31N 50°23' W 004°11'0 0.0
2017-Jan-20 15:31N 50°23' W 004°11'3 2.7
2017-Jan-20 14:34N 50°21' W 004°08'6 5.8
2017-Jan-20 13:33N 50°16' W 004°10'1 0.6
2017-Jan-20 12:33N 50°15' W 004°09'2 2.3
2017-Jan-20 11:33N 50°13' W 004°12'3 2.9
2017-Jan-20 10:33N 50°14' W 004°16'6 4.6
2017-Jan-20 09:10N 50°19' W 004°10'2 3.5
2017-Jan-20 08:32N 50°21' W 004°09'0 0.0
2017-Jan-20 07:32N 50°21' W 004°09'0 0.0
2017-Jan-20 06:32N 50°21' W 004°09'0 0.0
2017-Jan-20 05:32N 50°21' W 004°09'0 0.0
2017-Jan-20 04:32N 50°21' W 004°09'0 0.0
2017-Jan-20 03:32N 50°21' W 004°09'0 0.0
2017-Jan-20 02:32N 50°21' W 004°09'0 0.0
2017-Jan-20 01:32N 50°21' W 004°09'0 0.0
2017-Jan-20 00:32N 50°21' W 004°09'0 0.0
2017-Jan-19 23:32N 50°21' W 004°09'0 0.0
2017-Jan-19 22:32N 50°21' W 004°09'0 0.0
2017-Jan-19 21:32N 50°21' W 004°09'0 0.0
2017-Jan-19 20:32N 50°21' W 004°09'0 0.0
2017-Jan-19 19:32N 50°21' W 004°09'0 0.0
2017-Jan-19 18:32N 50°21' W 004°09'0 0.0
2017-Jan-19 17:32N 50°21' W 004°09'1 0.6
2017-Jan-19 16:30N 50°20' W 004°09'5 5.4
2017-Jan-19 15:34N 50°15' W 004°12'1 1.4
2017-Jan-19 14:34N 50°14' W 004°12'11 9.4
2017-Jan-19 13:25N 50°03' W 004°13'1312.3
2017-Jan-19 12:23N 49°53' W 004°02'7 8.4
2017-Jan-19 11:33N 49°53' W 004°12'8 6.2
2017-Jan-19 10:15N 50°01' W 004°10'6 8.3
2017-Jan-19 09:32N 50°07' W 004°10'1212.0
2017-Jan-19 08:32N 50°19' W 004°10'2 2.4
2017-Jan-19 07:33N 50°21' W 004°09'0 0.0
2017-Jan-19 06:33N 50°21' W 004°09'0 0.1
2017-Jan-19 05:33N 50°21' W 004°08'0 0.1
2017-Jan-19 04:30N 50°21' W 004°09'0 0.0
2017-Jan-19 03:30N 50°21' W 004°09'0 0.0
2017-Jan-19 02:33N 50°21' W 004°09'0 0.0
2017-Jan-19 01:33N 50°21' W 004°09'0 0.0
2017-Jan-19 00:33N 50°21' W 004°09'0 0.0
2017-Jan-18 23:30N 50°21' W 004°09'0 0.0
2017-Jan-18 22:33N 50°21' W 004°09'0 0.0
2017-Jan-18 21:33N 50°21' W 004°09'0 0.0
2017-Jan-18 20:33N 50°21' W 004°09'0 0.0
2017-Jan-18 19:30N 50°21' W 004°09'0 0.1
2017-Jan-18 18:33N 50°21' W 004°08'6 5.6
2017-Jan-18 17:33N 50°16' W 004°12'2 2.0
2017-Jan-18 16:29N 50°15' W 004°16'0 0.3
2017-Jan-18 15:34N 50°15' W 004°15'6 5.3
2017-Jan-18 14:27N 50°14' W 004°06'2 2.6
2017-Jan-18 13:33N 50°16' W 004°09'1 1.0
2017-Jan-18 12:33N 50°16' W 004°07'2 1.6
2017-Jan-18 11:21N 50°18' W 004°09'2 2.9
2017-Jan-18 10:34N 50°16' W 004°12'5 5.3
2017-Jan-18 09:33N 50°16' W 004°04'5 5.3
2017-Jan-18 08:33N 50°21' W 004°09'0 0.1
2017-Jan-18 07:33N 50°21' W 004°09'0 0.0
2017-Jan-18 06:33N 50°21' W 004°09'0 0.0
2017-Jan-18 05:33N 50°21' W 004°09'0 0.0
2017-Jan-18 04:33N 50°21' W 004°09'0 0.0
2017-Jan-18 03:33N 50°21' W 004°09'0 0.0
2017-Jan-18 02:33N 50°21' W 004°09'0 0.0
2017-Jan-18 01:33N 50°21' W 004°09'0 0.0
2017-Jan-18 00:33N 50°21' W 004°09'0 0.0
2017-Jan-17 23:34N 50°21' W 004°09'5 5.0
2017-Jan-17 22:31N 50°16' W 004°09'1110.9
2017-Jan-17 21:28N 50°05' W 004°03'4 4.1
2017-Jan-17 20:33N 50°06' W 003°57'7 7.0
2017-Jan-17 19:34N 50°12' W 004°04'6 6.2
2017-Jan-17 18:33N 50°17' W 004°10'2 0.9
2017-Jan-17 16:33N 50°15' W 004°09'6 6.1
2017-Jan-17 15:34N 50°09' W 004°12'6 6.2
2017-Jan-17 14:34N 50°05' W 004°05'1513.9
2017-Jan-17 13:28N 50°20' W 004°09'5 5.4
2017-Jan-17 12:33N 50°16' W 004°11'0 0.4
2017-Jan-17 11:33N 50°16' W 004°11'2 1.6
2017-Jan-17 10:33N 50°16' W 004°08'1 0.8
2017-Jan-17 09:18N 50°16' W 004°07'3 4.1
2017-Jan-17 08:34N 50°15' W 004°11'6 6.0
2017-Jan-17 07:31N 50°21' W 004°09'0 0.0
2017-Jan-17 06:31N 50°21' W 004°09'0 0.0
2017-Jan-17 05:31N 50°21' W 004°08'0 0.0
2017-Jan-17 04:31N 50°21' W 004°08'0 0.0
2017-Jan-17 03:31N 50°21' W 004°08'0 0.0
2017-Jan-17 02:31N 50°21' W 004°08'0 0.0
2017-Jan-17 01:31N 50°21' W 004°08'0 0.0
2017-Jan-17 00:31N 50°21' W 004°09'0 0.0
2017-Jan-16 23:28N 50°21' W 004°08'0 0.0
2017-Jan-16 22:30N 50°21' W 004°08'0 0.0
2017-Jan-16 21:34N 50°21' W 004°08'3 3.2
2017-Jan-16 20:33N 50°18' W 004°07'4 4.0
2017-Jan-16 19:29N 50°15' W 004°12'0 0.2
2017-Jan-16 18:32N 50°15' W 004°12'0 0.3
2017-Jan-16 17:32N 50°15' W 004°13'2 2.3
2017-Jan-16 16:33N 50°15' W 004°16'5 5.1
2017-Jan-16 15:32N 50°20' W 004°18'6 6.6
2017-Jan-16 14:33N 50°21' W 004°08'3 2.5
2017-Jan-16 13:33N 50°23' W 004°11'0 0.0
2017-Jan-16 12:30N 50°23' W 004°11'0 0.0
2017-Jan-16 11:33N 50°23' W 004°11'0 0.0
2017-Jan-16 10:33N 50°23' W 004°11'0 0.0
2017-Jan-16 09:30N 50°23' W 004°11'0 0.0
2017-Jan-16 08:33N 50°23' W 004°11'0 0.0
2017-Jan-16 07:33N 50°23' W 004°11'0 0.0
2017-Jan-16 06:33N 50°23' W 004°11'0 0.0
2017-Jan-16 05:32N 50°23' W 004°11'0 0.0
2017-Jan-16 04:32N 50°23' W 004°11'0 0.0
2017-Jan-16 03:29N 50°23' W 004°11'0 0.0
2017-Jan-16 02:29N 50°23' W 004°11'0 0.0
2017-Jan-16 01:32N 50°23' W 004°11'0 0.0
2017-Jan-16 00:29N 50°23' W 004°11'0 0.0
2017-Jan-15 23:29N 50°23' W 004°11'0 0.0
2017-Jan-15 22:32N 50°23' W 004°11'0 0.0
2017-Jan-15 21:32N 50°23' W 004°11'0 0.0
2017-Jan-15 20:32N 50°23' W 004°11'0 0.0
2017-Jan-15 19:29N 50°23' W 004°11'0 0.0
2017-Jan-15 18:32N 50°23' W 004°11'0 0.0
2017-Jan-15 17:32N 50°23' W 004°11'0 0.0
2017-Jan-15 16:29N 50°23' W 004°11'0 0.0
2017-Jan-15 15:32N 50°23' W 004°11'0 0.0
2017-Jan-15 14:32N 50°23' W 004°11'0 0.0
2017-Jan-15 13:32N 50°23' W 004°11'0 0.0
2017-Jan-15 12:23N 50°23' W 004°11'0 0.0
2017-Jan-15 11:32N 50°23' W 004°11'0 0.0
2017-Jan-15 10:32N 50°23' W 004°11'0 0.0
2017-Jan-15 09:32N 50°23' W 004°11'0 0.0
2017-Jan-15 08:29N 50°23' W 004°11'0 0.0
2017-Jan-15 07:32N 50°23' W 004°11'0 0.0
2017-Jan-15 06:29N 50°23' W 004°11'0 0.0
2017-Jan-15 05:32N 50°23' W 004°11'0 0.0
2017-Jan-15 04:32N 50°23' W 004°11'0 0.0
2017-Jan-15 03:29N 50°23' W 004°11'0 0.0
2017-Jan-15 02:29N 50°23' W 004°11'0 0.0
2017-Jan-15 01:32N 50°23' W 004°11'0 0.0
2017-Jan-15 00:29N 50°23' W 004°11'0 0.0
2017-Jan-14 23:32N 50°23' W 004°11'0 0.0
2017-Jan-14 22:32N 50°23' W 004°11'0 0.0
2017-Jan-14 21:29N 50°23' W 004°11'0 0.0
2017-Jan-14 20:32N 50°23' W 004°11'0 0.0
2017-Jan-14 19:32N 50°23' W 004°11'0 0.0
2017-Jan-14 18:32N 50°23' W 004°11'0 0.0
2017-Jan-14 17:32N 50°23' W 004°11'0 0.0
2017-Jan-14 16:31N 50°23' W 004°11'0 0.0
2017-Jan-14 15:31N 50°23' W 004°11'0 0.0
2017-Jan-14 14:31N 50°23' W 004°11'0 0.0
2017-Jan-14 13:31N 50°23' W 004°11'0 0.0
2017-Jan-14 12:31N 50°23' W 004°11'0 0.0
2017-Jan-14 11:31N 50°23' W 004°11'0 0.0
2017-Jan-14 10:31N 50°23' W 004°11'0 0.0
2017-Jan-14 09:31N 50°23' W 004°11'0 0.0
2017-Jan-14 08:31N 50°23' W 004°11'0 0.0
2017-Jan-14 07:34N 50°23' W 004°11'0 0.0
2017-Jan-14 06:33N 50°23' W 004°11'0 0.0
2017-Jan-14 05:33N 50°23' W 004°11'0 0.0
2017-Jan-14 04:30N 50°23' W 004°11'0 0.0
2017-Jan-14 03:30N 50°23' W 004°11'0 0.0
2017-Jan-13 23:30N 50°23' W 004°11'0 0.0
2017-Jan-13 22:33N 50°23' W 004°11'0 0.0
2017-Jan-13 21:33N 50°23' W 004°11'0 0.0
2017-Jan-13 20:30N 50°23' W 004°11'0 0.0
2017-Jan-13 19:33N 50°23' W 004°11'0 0.0
2017-Jan-13 18:33N 50°23' W 004°11'0 0.0
2017-Jan-13 17:33N 50°23' W 004°11'0 0.0
2017-Jan-13 16:33N 50°23' W 004°11'0 0.0
2017-Jan-13 15:33N 50°23' W 004°11'0 0.0
2017-Jan-13 14:33N 50°23' W 004°11'0 0.0
2017-Jan-13 13:30N 50°23' W 004°11'0 0.0
2017-Jan-13 12:33N 50°23' W 004°11'0 0.0
2017-Jan-13 11:33N 50°23' W 004°11'0 0.0
2017-Jan-13 10:33N 50°23' W 004°11'0 0.0
2017-Jan-13 09:30N 50°23' W 004°11'0 0.0
2017-Jan-13 08:30N 50°23' W 004°11'0 0.0
2017-Jan-13 07:33N 50°23' W 004°11'0 0.0
2017-Jan-13 06:30N 50°23' W 004°11'0 0.0
2017-Jan-13 05:33N 50°23' W 004°11'0 0.0
2017-Jan-13 04:33N 50°23' W 004°11'0 0.0
2017-Jan-13 03:33N 50°23' W 004°11'0 0.0
2017-Jan-13 02:33N 50°23' W 004°11'0 0.0
2017-Jan-13 01:30N 50°23' W 004°11'0 0.0
2017-Jan-13 00:30N 50°23' W 004°11'0 0.0
2017-Jan-12 23:32N 50°23' W 004°11'0 0.0
2017-Jan-12 22:29N 50°23' W 004°11'0 0.0
2017-Jan-12 21:29N 50°23' W 004°11'0 0.0
2017-Jan-12 20:32N 50°23' W 004°11'0 0.0
2017-Jan-12 19:29N 50°23' W 004°11'0 0.0
2017-Jan-12 18:32N 50°23' W 004°11'0 0.0
2017-Jan-12 17:32N 50°23' W 004°11'0 0.0
2017-Jan-12 16:32N 50°23' W 004°11'0 0.0
2017-Jan-12 15:32N 50°23' W 004°11'0 0.0
2017-Jan-12 14:29N 50°23' W 004°11'0 0.0
2017-Jan-12 13:32N 50°23' W 004°11'0 0.0
2017-Jan-12 12:32N 50°23' W 004°11'0 0.0
2017-Jan-12 11:29N 50°23' W 004°11'0 0.0
2017-Jan-12 10:29N 50°23' W 004°11'0 0.0
2017-Jan-12 09:32N 50°23' W 004°11'0 0.0
2017-Jan-12 08:32N 50°23' W 004°11'0 0.0
2017-Jan-12 07:32N 50°23' W 004°11'0 0.0
2017-Jan-12 06:29N 50°23' W 004°11'0 0.0
2017-Jan-12 05:29N 50°23' W 004°11'0 0.0
2017-Jan-12 04:32N 50°23' W 004°11'0 0.0
2017-Jan-12 03:32N 50°23' W 004°11'0 0.0
2017-Jan-12 02:29N 50°23' W 004°11'0 0.0
2017-Jan-12 01:32N 50°23' W 004°11'0 0.0
2017-Jan-12 00:32N 50°23' W 004°11'0 0.0
2017-Jan-11 23:32N 50°23' W 004°11'0 0.0
2017-Jan-11 22:29N 50°23' W 004°11'0 0.0
2017-Jan-11 21:32N 50°23' W 004°11'0 0.0
2017-Jan-11 20:32N 50°23' W 004°11'0 0.0
2017-Jan-11 19:32N 50°23' W 004°11'  

Dump ship's entire track history